sensor_id;sensor_type;location;lat;lon;timestamp;temperature;humidity
22558;DHT22;11445;53.816;8.902;2022-12-29T00:01:36;8.60;99.90
22558;DHT22;11445;53.816;8.902;2022-12-29T00:04:04;8.60;99.90
22558;DHT22;11445;53.816;8.902;2022-12-29T00:06:31;8.60;99.90
22558;DHT22;11445;53.816;8.902;2022-12-29T00:08:58;8.70;99.90
22558;DHT22;11445;53.816;8.902;2022-12-29T00:11:27;8.70;99.90
22558;DHT22;11445;53.816;8.902;2022-12-29T00:13:55;8.70;99.90
22558;DHT22;11445;53.816;8.902;2022-12-29T00:16:41;8.70;99.90
22558;DHT22;11445;53.816;8.902;2022-12-29T00:19:10;8.70;99.90
22558;DHT22;11445;53.816;8.902;2022-12-29T00:21:58;8.70;99.90
22558;DHT22;11445;53.816;8.902;2022-12-29T00:24:43;8.70;99.90
22558;DHT22;11445;53.816;8.902;2022-12-29T00:27:29;8.70;99.90
22558;DHT22;11445;53.816;8.902;2022-12-29T00:30:15;8.80;99.90
22558;DHT22;11445;53.816;8.902;2022-12-29T00:33:01;8.80;99.90
22558;DHT22;11445;53.816;8.902;2022-12-29T00:35:54;8.80;99.90
22558;DHT22;11445;53.816;8.902;2022-12-29T00:38:23;8.80;99.90
22558;DHT22;11445;53.816;8.902;2022-12-29T00:41:08;8.80;99.90
22558;DHT22;11445;53.816;8.902;2022-12-29T00:43:53;8.80;99.90
22558;DHT22;11445;53.816;8.902;2022-12-29T00:46:33;8.80;99.90
22558;DHT22;11445;53.816;8.902;2022-12-29T00:49:00;8.80;99.90
22558;DHT22;11445;53.816;8.902;2022-12-29T00:51:45;8.80;99.90
22558;DHT22;11445;53.816;8.902;2022-12-29T00:54:13;8.80;99.90
22558;DHT22;11445;53.816;8.902;2022-12-29T00:56:40;8.80;99.90
22558;DHT22;11445;53.816;8.902;2022-12-29T00:59:10;8.80;99.90
22558;DHT22;11445;53.816;8.902;2022-12-29T01:01:38;8.90;99.90
22558;DHT22;11445;53.816;8.902;2022-12-29T01:04:06;8.90;99.90
22558;DHT22;11445;53.816;8.902;2022-12-29T01:06:34;8.90;99.90
22558;DHT22;11445;53.816;8.902;2022-12-29T01:09:03;8.90;99.90
22558;DHT22;11445;53.816;8.902;2022-12-29T01:11:47;8.90;99.90
22558;DHT22;11445;53.816;8.902;2022-12-29T01:14:16;8.90;99.90
22558;DHT22;11445;53.816;8.902;2022-12-29T01:16:43;8.90;99.90
22558;DHT22;11445;53.816;8.902;2022-12-29T01:19:10;8.90;99.90
22558;DHT22;11445;53.816;8.902;2022-12-29T01:21:37;8.90;99.90
22558;DHT22;11445;53.816;8.902;2022-12-29T01:24:05;8.90;99.90
22558;DHT22;11445;53.816;8.902;2022-12-29T01:26:32;9.00;99.90
22558;DHT22;11445;53.816;8.902;2022-12-29T01:28:59;9.00;99.90
22558;DHT22;11445;53.816;8.902;2022-12-29T01:31:27;9.00;99.90
22558;DHT22;11445;53.816;8.902;2022-12-29T01:33:54;9.00;99.90
22558;DHT22;11445;53.816;8.902;2022-12-29T01:36:21;9.10;99.90
22558;DHT22;11445;53.816;8.902;2022-12-29T01:38:48;9.10;99.90
22558;DHT22;11445;53.816;8.902;2022-12-29T01:41:16;9.10;99.90
22558;DHT22;11445;53.816;8.902;2022-12-29T01:43:44;9.10;99.90
22558;DHT22;11445;53.816;8.902;2022-12-29T01:46:28;9.10;99.90
22558;DHT22;11445;53.816;8.902;2022-12-29T01:49:00;9.20;99.90
22558;DHT22;11445;53.816;8.902;2022-12-29T01:51:31;9.20;99.90
22558;DHT22;11445;53.816;8.902;2022-12-29T01:54:01;9.20;99.90
22558;DHT22;11445;53.816;8.902;2022-12-29T01:56:29;9.20;99.90
22558;DHT22;11445;53.816;8.902;2022-12-29T01:59:01;9.20;99.90
22558;DHT22;11445;53.816;8.902;2022-12-29T02:01:30;9.20;99.90
22558;DHT22;11445;53.816;8.902;2022-12-29T02:03:57;9.20;99.90
22558;DHT22;11445;53.816;8.902;2022-12-29T02:06:29;9.20;99.90
22558;DHT22;11445;53.816;8.902;2022-12-29T02:08:59;9.30;99.90
22558;DHT22;11445;53.816;8.902;2022-12-29T02:11:27;9.30;99.90
22558;DHT22;11445;53.816;8.902;2022-12-29T02:13:55;9.30;99.90
22558;DHT22;11445;53.816;8.902;2022-12-29T02:16:34;9.30;99.90
22558;DHT22;11445;53.816;8.902;2022-12-29T02:22:09;9.30;99.90
22558;DHT22;11445;53.816;8.902;2022-12-29T02:27:45;9.30;99.90
22558;DHT22;11445;53.816;8.902;2022-12-29T02:30:35;9.30;99.90
22558;DHT22;11445;53.816;8.902;2022-12-29T02:33:09;9.30;99.90
22558;DHT22;11445;53.816;8.902;2022-12-29T02:35:43;9.40;99.90
22558;DHT22;11445;53.816;8.902;2022-12-29T02:38:16;9.40;99.90
22558;DHT22;11445;53.816;8.902;2022-12-29T02:40:48;9.40;99.90
22558;DHT22;11445;53.816;8.902;2022-12-29T02:43:23;9.40;99.90
22558;DHT22;11445;53.816;8.902;2022-12-29T02:45:55;9.40;99.90
22558;DHT22;11445;53.816;8.902;2022-12-29T02:48:27;9.40;99.90
22558;DHT22;11445;53.816;8.902;2022-12-29T02:51:00;9.40;99.90
22558;DHT22;11445;53.816;8.902;2022-12-29T02:53:30;9.40;99.90
22558;DHT22;11445;53.816;8.902;2022-12-29T02:56:17;9.40;99.90
22558;DHT22;11445;53.816;8.902;2022-12-29T02:58:44;9.50;99.90
22558;DHT22;11445;53.816;8.902;2022-12-29T03:01:28;9.50;99.90
22558;DHT22;11445;53.816;8.902;2022-12-29T03:04:11;9.50;99.90
22558;DHT22;11445;53.816;8.902;2022-12-29T03:06:49;9.50;99.90
22558;DHT22;11445;53.816;8.902;2022-12-29T03:09:29;9.50;99.90
22558;DHT22;11445;53.816;8.902;2022-12-29T03:12:18;9.50;99.90
22558;DHT22;11445;53.816;8.902;2022-12-29T03:14:58;9.60;99.90
22558;DHT22;11445;53.816;8.902;2022-12-29T03:17:53;9.60;99.90
22558;DHT22;11445;53.816;8.902;2022-12-29T03:20:25;9.60;99.90
22558;DHT22;11445;53.816;8.902;2022-12-29T03:22:58;9.60;99.90
22558;DHT22;11445;53.816;8.902;2022-12-29T03:25:30;9.60;99.90
22558;DHT22;11445;53.816;8.902;2022-12-29T03:28:01;9.60;99.90
22558;DHT22;11445;53.816;8.902;2022-12-29T03:30:29;9.70;99.90
22558;DHT22;11445;53.816;8.902;2022-12-29T03:33:00;9.70;99.90
22558;DHT22;11445;53.816;8.902;2022-12-29T03:35:31;9.70;99.90
22558;DHT22;11445;53.816;8.902;2022-12-29T03:38:05;9.70;99.90
22558;DHT22;11445;53.816;8.902;2022-12-29T03:40:33;9.70;99.90
22558;DHT22;11445;53.816;8.902;2022-12-29T03:43:02;9.70;99.90
22558;DHT22;11445;53.816;8.902;2022-12-29T03:45:29;9.80;99.90
22558;DHT22;11445;53.816;8.902;2022-12-29T03:47:58;9.80;99.90
22558;DHT22;11445;53.816;8.902;2022-12-29T03:50:25;9.80;99.90
22558;DHT22;11445;53.816;8.902;2022-12-29T03:52:52;9.80;99.90
22558;DHT22;11445;53.816;8.902;2022-12-29T03:55:19;9.90;99.90
22558;DHT22;11445;53.816;8.902;2022-12-29T03:57:46;9.90;99.90
22558;DHT22;11445;53.816;8.902;2022-12-29T04:00:13;9.90;99.90
22558;DHT22;11445;53.816;8.902;2022-12-29T04:02:41;9.90;99.90
22558;DHT22;11445;53.816;8.902;2022-12-29T04:05:09;9.90;99.90
22558;DHT22;11445;53.816;8.902;2022-12-29T04:07:36;10.00;99.90
22558;DHT22;11445;53.816;8.902;2022-12-29T04:10:04;9.90;99.90
22558;DHT22;11445;53.816;8.902;2022-12-29T04:12:31;9.90;99.90
22558;DHT22;11445;53.816;8.902;2022-12-29T04:14:58;10.00;99.90
22558;DHT22;11445;53.816;8.902;2022-12-29T04:17:25;10.00;99.90
22558;DHT22;11445;53.816;8.902;2022-12-29T04:19:52;10.00;99.90
22558;DHT22;11445;53.816;8.902;2022-12-29T04:22:41;10.00;99.90
22558;DHT22;11445;53.816;8.902;2022-12-29T04:25:08;10.00;99.90
22558;DHT22;11445;53.816;8.902;2022-12-29T04:27:35;10.00;99.90
22558;DHT22;11445;53.816;8.902;2022-12-29T04:30:03;10.00;99.90
22558;DHT22;11445;53.816;8.902;2022-12-29T04:32:30;10.00;99.90
22558;DHT22;11445;53.816;8.902;2022-12-29T04:34:57;10.00;99.90
22558;DHT22;11445;53.816;8.902;2022-12-29T04:37:24;10.00;99.90
22558;DHT22;11445;53.816;8.902;2022-12-29T04:39:52;10.00;99.90
22558;DHT22;11445;53.816;8.902;2022-12-29T04:42:19;9.90;99.90
22558;DHT22;11445;53.816;8.902;2022-12-29T04:44:46;9.90;99.90
22558;DHT22;11445;53.816;8.902;2022-12-29T04:47:13;9.90;99.90
22558;DHT22;11445;53.816;8.902;2022-12-29T04:49:40;9.90;99.90
22558;DHT22;11445;53.816;8.902;2022-12-29T04:52:07;9.90;99.90
22558;DHT22;11445;53.816;8.902;2022-12-29T04:54:34;9.90;99.90
22558;DHT22;11445;53.816;8.902;2022-12-29T04:57:03;9.90;99.90
22558;DHT22;11445;53.816;8.902;2022-12-29T04:59:30;9.90;99.90
22558;DHT22;11445;53.816;8.902;2022-12-29T05:01:57;9.90;99.90
22558;DHT22;11445;53.816;8.902;2022-12-29T05:04:24;9.90;99.90
22558;DHT22;11445;53.816;8.902;2022-12-29T05:06:51;9.90;99.90
22558;DHT22;11445;53.816;8.902;2022-12-29T05:09:18;9.90;99.90
22558;DHT22;11445;53.816;8.902;2022-12-29T05:11:45;9.90;99.90
22558;DHT22;11445;53.816;8.902;2022-12-29T05:14:13;9.90;99.90
22558;DHT22;11445;53.816;8.902;2022-12-29T05:16:40;9.80;99.90
22558;DHT22;11445;53.816;8.902;2022-12-29T05:19:07;9.80;99.90
22558;DHT22;11445;53.816;8.902;2022-12-29T05:21:34;9.70;99.90
22558;DHT22;11445;53.816;8.902;2022-12-29T05:24:01;9.70;99.90
22558;DHT22;11445;53.816;8.902;2022-12-29T05:26:28;9.70;99.90
22558;DHT22;11445;53.816;8.902;2022-12-29T05:28:55;9.70;99.90
22558;DHT22;11445;53.816;8.902;2022-12-29T05:31:24;9.80;99.90
22558;DHT22;11445;53.816;8.902;2022-12-29T05:33:51;9.80;99.90
22558;DHT22;11445;53.816;8.902;2022-12-29T05:36:18;9.80;99.90
22558;DHT22;11445;53.816;8.902;2022-12-29T05:38:45;9.80;99.90
22558;DHT22;11445;53.816;8.902;2022-12-29T05:41:12;9.80;99.90
22558;DHT22;11445;53.816;8.902;2022-12-29T05:43:39;9.80;99.90
22558;DHT22;11445;53.816;8.902;2022-12-29T05:46:06;9.80;99.90
22558;DHT22;11445;53.816;8.902;2022-12-29T05:48:34;9.80;99.90
22558;DHT22;11445;53.816;8.902;2022-12-29T05:51:01;9.80;99.90
22558;DHT22;11445;53.816;8.902;2022-12-29T05:53:28;9.80;99.90
22558;DHT22;11445;53.816;8.902;2022-12-29T05:55:55;9.90;99.90
22558;DHT22;11445;53.816;8.902;2022-12-29T05:58:22;9.90;99.90
22558;DHT22;11445;53.816;8.902;2022-12-29T06:00:49;9.90;99.90
22558;DHT22;11445;53.816;8.902;2022-12-29T06:03:16;9.90;99.90
22558;DHT22;11445;53.816;8.902;2022-12-29T06:05:46;9.90;99.90
22558;DHT22;11445;53.816;8.902;2022-12-29T06:08:13;9.90;99.90
22558;DHT22;11445;53.816;8.902;2022-12-29T06:10:40;9.90;99.90
22558;DHT22;11445;53.816;8.902;2022-12-29T06:13:07;9.90;99.90
22558;DHT22;11445;53.816;8.902;2022-12-29T06:15:34;9.90;99.90
22558;DHT22;11445;53.816;8.902;2022-12-29T06:18:01;9.90;99.90
22558;DHT22;11445;53.816;8.902;2022-12-29T06:20:29;9.90;99.90
22558;DHT22;11445;53.816;8.902;2022-12-29T06:22:57;9.90;99.90
22558;DHT22;11445;53.816;8.902;2022-12-29T06:25:24;9.90;99.90
22558;DHT22;11445;53.816;8.902;2022-12-29T06:27:51;9.90;99.90
22558;DHT22;11445;53.816;8.902;2022-12-29T06:30:18;9.80;99.90
22558;DHT22;11445;53.816;8.902;2022-12-29T06:32:45;9.80;99.90
22558;DHT22;11445;53.816;8.902;2022-12-29T06:35:12;9.80;99.90
22558;DHT22;11445;53.816;8.902;2022-12-29T06:37:39;9.80;99.90
22558;DHT22;11445;53.816;8.902;2022-12-29T06:40:09;9.80;99.90
22558;DHT22;11445;53.816;8.902;2022-12-29T06:42:36;9.80;99.90
22558;DHT22;11445;53.816;8.902;2022-12-29T06:45:04;9.80;99.90
22558;DHT22;11445;53.816;8.902;2022-12-29T06:47:32;9.70;99.90
22558;DHT22;11445;53.816;8.902;2022-12-29T06:50:00;9.70;99.90
22558;DHT22;11445;53.816;8.902;2022-12-29T06:52:27;9.70;99.90
22558;DHT22;11445;53.816;8.902;2022-12-29T06:54:54;9.60;99.90
22558;DHT22;11445;53.816;8.902;2022-12-29T06:57:22;9.60;99.90
22558;DHT22;11445;53.816;8.902;2022-12-29T06:59:49;9.60;99.90
22558;DHT22;11445;53.816;8.902;2022-12-29T07:02:16;9.60;99.90
22558;DHT22;11445;53.816;8.902;2022-12-29T07:04:45;9.60;99.90
22558;DHT22;11445;53.816;8.902;2022-12-29T07:07:12;9.60;99.90
22558;DHT22;11445;53.816;8.902;2022-12-29T07:09:39;9.60;99.90
22558;DHT22;11445;53.816;8.902;2022-12-29T07:12:06;9.60;99.90
22558;DHT22;11445;53.816;8.902;2022-12-29T07:14:34;9.70;99.90
22558;DHT22;11445;53.816;8.902;2022-12-29T07:17:02;9.70;99.90
22558;DHT22;11445;53.816;8.902;2022-12-29T07:19:31;9.70;99.90
22558;DHT22;11445;53.816;8.902;2022-12-29T07:21:58;9.70;99.90
22558;DHT22;11445;53.816;8.902;2022-12-29T07:24:25;9.70;99.90
22558;DHT22;11445;53.816;8.902;2022-12-29T07:26:52;9.70;99.90
22558;DHT22;11445;53.816;8.902;2022-12-29T07:29:19;9.80;99.90
22558;DHT22;11445;53.816;8.902;2022-12-29T07:31:47;9.70;99.90
22558;DHT22;11445;53.816;8.902;2022-12-29T07:34:14;9.80;99.90
22558;DHT22;11445;53.816;8.902;2022-12-29T07:36:41;9.80;99.90
22558;DHT22;11445;53.816;8.902;2022-12-29T07:39:08;9.90;99.90
22558;DHT22;11445;53.816;8.902;2022-12-29T07:41:37;9.90;99.90
22558;DHT22;11445;53.816;8.902;2022-12-29T07:44:04;9.90;99.90
22558;DHT22;11445;53.816;8.902;2022-12-29T07:46:31;10.00;99.90
22558;DHT22;11445;53.816;8.902;2022-12-29T07:48:59;10.00;99.90
22558;DHT22;11445;53.816;8.902;2022-12-29T07:51:26;10.00;99.90
22558;DHT22;11445;53.816;8.902;2022-12-29T07:53:53;10.00;99.90
22558;DHT22;11445;53.816;8.902;2022-12-29T07:56:20;10.00;99.90
22558;DHT22;11445;53.816;8.902;2022-12-29T07:58:47;10.00;99.90
22558;DHT22;11445;53.816;8.902;2022-12-29T08:01:14;10.00;99.90
22558;DHT22;11445;53.816;8.902;2022-12-29T08:03:41;10.00;99.90
22558;DHT22;11445;53.816;8.902;2022-12-29T08:06:10;10.00;99.90
22558;DHT22;11445;53.816;8.902;2022-12-29T08:08:37;10.00;99.90
22558;DHT22;11445;53.816;8.902;2022-12-29T08:11:04;10.00;99.90
22558;DHT22;11445;53.816;8.902;2022-12-29T08:13:31;10.10;99.90
22558;DHT22;11445;53.816;8.902;2022-12-29T08:15:59;10.00;99.90
22558;DHT22;11445;53.816;8.902;2022-12-29T08:18:26;10.00;99.90
22558;DHT22;11445;53.816;8.902;2022-12-29T08:20:53;10.00;99.90
22558;DHT22;11445;53.816;8.902;2022-12-29T08:23:21;10.00;99.90
22558;DHT22;11445;53.816;8.902;2022-12-29T08:25:57;10.00;99.90
22558;DHT22;11445;53.816;8.902;2022-12-29T08:28:24;9.90;99.90
22558;DHT22;11445;53.816;8.902;2022-12-29T08:30:51;9.90;99.90
22558;DHT22;11445;53.816;8.902;2022-12-29T08:33:18;9.90;99.90
22558;DHT22;11445;53.816;8.902;2022-12-29T08:35:45;9.90;99.90
22558;DHT22;11445;53.816;8.902;2022-12-29T08:38:12;9.90;99.90
22558;DHT22;11445;53.816;8.902;2022-12-29T08:40:41;9.80;99.90
22558;DHT22;11445;53.816;8.902;2022-12-29T08:43:08;9.80;99.90
22558;DHT22;11445;53.816;8.902;2022-12-29T08:45:35;9.90;99.90
22558;DHT22;11445;53.816;8.902;2022-12-29T08:48:02;9.90;99.90
22558;DHT22;11445;53.816;8.902;2022-12-29T08:50:29;9.90;99.90
22558;DHT22;11445;53.816;8.902;2022-12-29T08:52:56;9.90;99.90
22558;DHT22;11445;53.816;8.902;2022-12-29T08:55:23;9.90;99.90
22558;DHT22;11445;53.816;8.902;2022-12-29T08:57:51;9.90;99.90
22558;DHT22;11445;53.816;8.902;2022-12-29T09:00:18;9.90;99.90
22558;DHT22;11445;53.816;8.902;2022-12-29T09:02:46;9.90;99.90
22558;DHT22;11445;53.816;8.902;2022-12-29T09:05:13;9.90;99.90
22558;DHT22;11445;53.816;8.902;2022-12-29T09:07:41;9.90;99.90
22558;DHT22;11445;53.816;8.902;2022-12-29T09:10:08;9.90;99.90
22558;DHT22;11445;53.816;8.902;2022-12-29T09:12:35;9.90;99.90
22558;DHT22;11445;53.816;8.902;2022-12-29T09:15:05;9.90;99.90
22558;DHT22;11445;53.816;8.902;2022-12-29T09:17:32;9.90;99.90
22558;DHT22;11445;53.816;8.902;2022-12-29T09:20:09;9.90;99.90
22558;DHT22;11445;53.816;8.902;2022-12-29T09:22:37;9.90;99.90
22558;DHT22;11445;53.816;8.902;2022-12-29T09:25:04;9.90;99.90
22558;DHT22;11445;53.816;8.902;2022-12-29T09:27:31;10.00;99.90
22558;DHT22;11445;53.816;8.902;2022-12-29T09:29:58;9.90;99.90
22558;DHT22;11445;53.816;8.902;2022-12-29T09:32:27;9.90;99.90
22558;DHT22;11445;53.816;8.902;2022-12-29T09:34:54;10.00;99.90
22558;DHT22;11445;53.816;8.902;2022-12-29T09:37:21;10.00;99.90
22558;DHT22;11445;53.816;8.902;2022-12-29T09:39:48;10.00;99.90
22558;DHT22;11445;53.816;8.902;2022-12-29T09:42:20;10.00;99.90
22558;DHT22;11445;53.816;8.902;2022-12-29T09:45:00;10.00;99.90
22558;DHT22;11445;53.816;8.902;2022-12-29T09:47:31;10.10;99.90
22558;DHT22;11445;53.816;8.902;2022-12-29T09:50:02;10.20;99.90
22558;DHT22;11445;53.816;8.902;2022-12-29T09:52:32;10.20;99.90
22558;DHT22;11445;53.816;8.902;2022-12-29T09:55:03;10.30;99.90
22558;DHT22;11445;53.816;8.902;2022-12-29T09:57:35;10.30;99.90
22558;DHT22;11445;53.816;8.902;2022-12-29T10:00:09;10.20;99.90
22558;DHT22;11445;53.816;8.902;2022-12-29T10:02:41;10.20;99.90
22558;DHT22;11445;53.816;8.902;2022-12-29T10:05:32;10.20;99.90
22558;DHT22;11445;53.816;8.902;2022-12-29T10:08:13;10.20;99.90
22558;DHT22;11445;53.816;8.902;2022-12-29T10:10:46;10.20;99.90
22558;DHT22;11445;53.816;8.902;2022-12-29T10:13:27;10.20;99.90
22558;DHT22;11445;53.816;8.902;2022-12-29T10:16:02;10.20;99.90
22558;DHT22;11445;53.816;8.902;2022-12-29T10:18:50;10.20;99.90
22558;DHT22;11445;53.816;8.902;2022-12-29T10:21:26;10.20;99.90
22558;DHT22;11445;53.816;8.902;2022-12-29T10:23:56;10.20;99.90
22558;DHT22;11445;53.816;8.902;2022-12-29T10:26:27;10.20;99.90
22558;DHT22;11445;53.816;8.902;2022-12-29T10:28:56;10.20;99.90
22558;DHT22;11445;53.816;8.902;2022-12-29T10:31:28;10.20;99.90
22558;DHT22;11445;53.816;8.902;2022-12-29T10:34:03;10.20;99.90
22558;DHT22;11445;53.816;8.902;2022-12-29T10:36:35;10.20;99.90
22558;DHT22;11445;53.816;8.902;2022-12-29T10:39:10;10.20;99.90
22558;DHT22;11445;53.816;8.902;2022-12-29T10:41:44;10.20;99.90
22558;DHT22;11445;53.816;8.902;2022-12-29T10:44:15;10.30;99.90
22558;DHT22;11445;53.816;8.902;2022-12-29T10:46:44;10.30;99.90
22558;DHT22;11445;53.816;8.902;2022-12-29T10:49:17;10.40;99.90
22558;DHT22;11445;53.816;8.902;2022-12-29T10:51:46;10.40;99.90
22558;DHT22;11445;53.816;8.902;2022-12-29T10:54:21;10.40;99.90
22558;DHT22;11445;53.816;8.902;2022-12-29T10:56:52;10.30;99.90
22558;DHT22;11445;53.816;8.902;2022-12-29T10:59:24;10.40;99.90
22558;DHT22;11445;53.816;8.902;2022-12-29T11:01:58;10.40;99.90
22558;DHT22;11445;53.816;8.902;2022-12-29T11:04:48;10.40;99.90
22558;DHT22;11445;53.816;8.902;2022-12-29T11:07:20;10.40;99.90
22558;DHT22;11445;53.816;8.902;2022-12-29T11:09:48;10.40;99.90
22558;DHT22;11445;53.816;8.902;2022-12-29T11:12:20;10.40;99.90
22558;DHT22;11445;53.816;8.902;2022-12-29T11:15:01;10.40;99.90
22558;DHT22;11445;53.816;8.902;2022-12-29T11:17:28;10.40;99.90
22558;DHT22;11445;53.816;8.902;2022-12-29T11:19:57;10.30;99.90
22558;DHT22;11445;53.816;8.902;2022-12-29T11:22:26;10.30;99.90
22558;DHT22;11445;53.816;8.902;2022-12-29T11:24:55;10.30;99.90
22558;DHT22;11445;53.816;8.902;2022-12-29T11:27:31;10.30;99.90
22558;DHT22;11445;53.816;8.902;2022-12-29T11:29:58;10.20;99.90
22558;DHT22;11445;53.816;8.902;2022-12-29T11:32:27;10.30;99.90
22558;DHT22;11445;53.816;8.902;2022-12-29T11:34:57;10.20;99.90
22558;DHT22;11445;53.816;8.902;2022-12-29T11:37:28;10.20;99.90
22558;DHT22;11445;53.816;8.902;2022-12-29T11:39:58;10.20;99.90
22558;DHT22;11445;53.816;8.902;2022-12-29T11:42:34;10.30;99.90
22558;DHT22;11445;53.816;8.902;2022-12-29T11:45:06;10.30;99.90
22558;DHT22;11445;53.816;8.902;2022-12-29T11:47:34;10.30;99.90
22558;DHT22;11445;53.816;8.902;2022-12-29T11:50:06;10.30;99.90
22558;DHT22;11445;53.816;8.902;2022-12-29T11:52:36;10.30;99.90
22558;DHT22;11445;53.816;8.902;2022-12-29T11:55:15;10.20;99.90
22558;DHT22;11445;53.816;8.902;2022-12-29T11:57:44;10.20;99.90
22558;DHT22;11445;53.816;8.902;2022-12-29T12:00:16;10.20;99.90
22558;DHT22;11445;53.816;8.902;2022-12-29T12:02:51;10.20;99.90
22558;DHT22;11445;53.816;8.902;2022-12-29T12:05:24;10.20;99.90
22558;DHT22;11445;53.816;8.902;2022-12-29T12:08:00;10.10;99.90
22558;DHT22;11445;53.816;8.902;2022-12-29T12:10:31;10.10;99.90
22558;DHT22;11445;53.816;8.902;2022-12-29T12:13:04;10.10;99.90
22558;DHT22;11445;53.816;8.902;2022-12-29T12:15:38;10.00;99.90
22558;DHT22;11445;53.816;8.902;2022-12-29T12:18:10;9.90;99.90
22558;DHT22;11445;53.816;8.902;2022-12-29T12:20:49;9.90;99.90
22558;DHT22;11445;53.816;8.902;2022-12-29T12:23:31;9.90;99.90
22558;DHT22;11445;53.816;8.902;2022-12-29T12:26:10;9.90;99.90
22558;DHT22;11445;53.816;8.902;2022-12-29T12:28:46;9.90;99.90
22558;DHT22;11445;53.816;8.902;2022-12-29T12:31:21;9.90;99.90
22558;DHT22;11445;53.816;8.902;2022-12-29T12:33:55;9.90;99.90
22558;DHT22;11445;53.816;8.902;2022-12-29T12:36:50;9.90;99.90
22558;DHT22;11445;53.816;8.902;2022-12-29T12:39:24;9.90;99.90
22558;DHT22;11445;53.816;8.902;2022-12-29T12:42:02;10.00;99.90
22558;DHT22;11445;53.816;8.902;2022-12-29T12:44:38;10.00;99.90
22558;DHT22;11445;53.816;8.902;2022-12-29T12:47:32;9.90;99.90
22558;DHT22;11445;53.816;8.902;2022-12-29T12:50:16;9.90;99.90
22558;DHT22;11445;53.816;8.902;2022-12-29T12:53:05;9.80;99.90
22558;DHT22;11445;53.816;8.902;2022-12-29T12:55:49;9.80;99.90
22558;DHT22;11445;53.816;8.902;2022-12-29T12:58:25;9.70;99.90
22558;DHT22;11445;53.816;8.902;2022-12-29T13:01:06;9.60;99.90
22558;DHT22;11445;53.816;8.902;2022-12-29T13:03:47;9.40;99.90
22558;DHT22;11445;53.816;8.902;2022-12-29T13:06:23;9.30;99.90
22558;DHT22;11445;53.816;8.902;2022-12-29T13:09:23;9.30;99.90
22558;DHT22;11445;53.816;8.902;2022-12-29T13:12:04;9.30;99.90
22558;DHT22;11445;53.816;8.902;2022-12-29T13:14:41;9.20;99.90
22558;DHT22;11445;53.816;8.902;2022-12-29T13:17:15;9.20;99.90
22558;DHT22;11445;53.816;8.902;2022-12-29T13:19:52;9.20;99.90
22558;DHT22;11445;53.816;8.902;2022-12-29T13:22:27;9.10;99.90
22558;DHT22;11445;53.816;8.902;2022-12-29T13:25:08;9.10;99.90
22558;DHT22;11445;53.816;8.902;2022-12-29T13:27:40;9.10;99.90
22558;DHT22;11445;53.816;8.902;2022-12-29T13:30:13;9.10;99.90
22558;DHT22;11445;53.816;8.902;2022-12-29T13:32:53;9.20;99.90
22558;DHT22;11445;53.816;8.902;2022-12-29T13:35:45;9.20;99.90
22558;DHT22;11445;53.816;8.902;2022-12-29T13:38:18;9.30;99.90
22558;DHT22;11445;53.816;8.902;2022-12-29T13:40:50;9.20;99.90
22558;DHT22;11445;53.816;8.902;2022-12-29T13:43:20;9.30;99.90
22558;DHT22;11445;53.816;8.902;2022-12-29T13:45:53;9.30;99.90
22558;DHT22;11445;53.816;8.902;2022-12-29T13:48:24;9.30;99.90
22558;DHT22;11445;53.816;8.902;2022-12-29T13:50:57;9.40;99.90
22558;DHT22;11445;53.816;8.902;2022-12-29T13:53:30;9.30;99.90
22558;DHT22;11445;53.816;8.902;2022-12-29T13:56:06;9.30;99.90
22558;DHT22;11445;53.816;8.902;2022-12-29T13:58:39;9.30;99.90
22558;DHT22;11445;53.816;8.902;2022-12-29T14:01:15;9.30;99.90
22558;DHT22;11445;53.816;8.902;2022-12-29T14:03:47;9.30;99.90
22558;DHT22;11445;53.816;8.902;2022-12-29T14:06:22;9.30;99.90
22558;DHT22;11445;53.816;8.902;2022-12-29T14:08:52;9.30;99.90
22558;DHT22;11445;53.816;8.902;2022-12-29T14:11:23;9.30;99.90
22558;DHT22;11445;53.816;8.902;2022-12-29T14:13:54;9.20;99.90
22558;DHT22;11445;53.816;8.902;2022-12-29T14:16:27;9.20;99.90
22558;DHT22;11445;53.816;8.902;2022-12-29T14:18:57;9.20;99.90
22558;DHT22;11445;53.816;8.902;2022-12-29T14:21:30;9.20;99.90
22558;DHT22;11445;53.816;8.902;2022-12-29T14:24:32;9.20;99.90
22558;DHT22;11445;53.816;8.902;2022-12-29T14:33:19;9.10;99.90
22558;DHT22;11445;53.816;8.902;2022-12-29T14:35:48;9.10;99.90
22558;DHT22;11445;53.816;8.902;2022-12-29T14:38:26;9.10;99.90
22558;DHT22;11445;53.816;8.902;2022-12-29T14:44:16;8.90;99.90
22558;DHT22;11445;53.816;8.902;2022-12-29T14:46:56;8.90;99.90
22558;DHT22;11445;53.816;8.902;2022-12-29T14:49:26;8.80;99.90
22558;DHT22;11445;53.816;8.902;2022-12-29T14:52:04;8.80;99.90
22558;DHT22;11445;53.816;8.902;2022-12-29T14:54:47;8.70;99.90
22558;DHT22;11445;53.816;8.902;2022-12-29T14:57:21;8.70;99.90
22558;DHT22;11445;53.816;8.902;2022-12-29T14:59:53;8.60;99.90
22558;DHT22;11445;53.816;8.902;2022-12-29T15:02:25;8.60;99.90
22558;DHT22;11445;53.816;8.902;2022-12-29T15:04:59;8.60;99.90
22558;DHT22;11445;53.816;8.902;2022-12-29T15:07:26;8.60;99.90
22558;DHT22;11445;53.816;8.902;2022-12-29T15:09:58;8.60;99.90
22558;DHT22;11445;53.816;8.902;2022-12-29T15:12:33;8.60;99.90
22558;DHT22;11445;53.816;8.902;2022-12-29T15:15:17;8.50;99.90
22558;DHT22;11445;53.816;8.902;2022-12-29T15:17:46;8.50;99.90
22558;DHT22;11445;53.816;8.902;2022-12-29T15:20:25;8.50;99.90
22558;DHT22;11445;53.816;8.902;2022-12-29T15:22:55;8.50;99.90
22558;DHT22;11445;53.816;8.902;2022-12-29T15:25:24;8.40;99.90
22558;DHT22;11445;53.816;8.902;2022-12-29T15:27:54;8.40;99.90
22558;DHT22;11445;53.816;8.902;2022-12-29T15:30:22;8.40;99.90
22558;DHT22;11445;53.816;8.902;2022-12-29T15:32:50;8.30;99.90
22558;DHT22;11445;53.816;8.902;2022-12-29T15:35:28;8.30;99.90
22558;DHT22;11445;53.816;8.902;2022-12-29T15:37:56;8.30;99.90
22558;DHT22;11445;53.816;8.902;2022-12-29T15:40:26;8.30;99.90
22558;DHT22;11445;53.816;8.902;2022-12-29T15:43:10;8.20;99.90
22558;DHT22;11445;53.816;8.902;2022-12-29T15:45:39;8.20;99.90
22558;DHT22;11445;53.816;8.902;2022-12-29T15:48:15;8.20;99.90
22558;DHT22;11445;53.816;8.902;2022-12-29T15:50:44;8.10;99.90
22558;DHT22;11445;53.816;8.902;2022-12-29T15:53:16;8.10;99.90
22558;DHT22;11445;53.816;8.902;2022-12-29T15:55:45;8.10;99.90
22558;DHT22;11445;53.816;8.902;2022-12-29T15:58:20;8.10;99.90
22558;DHT22;11445;53.816;8.902;2022-12-29T16:00:49;8.10;99.90
22558;DHT22;11445;53.816;8.902;2022-12-29T16:03:17;8.00;99.90
22558;DHT22;11445;53.816;8.902;2022-12-29T16:05:51;8.00;99.90
22558;DHT22;11445;53.816;8.902;2022-12-29T16:08:21;8.00;99.90
22558;DHT22;11445;53.816;8.902;2022-12-29T16:10:48;8.00;99.90
22558;DHT22;11445;53.816;8.902;2022-12-29T16:13:20;8.00;99.90
22558;DHT22;11445;53.816;8.902;2022-12-29T16:15:54;8.00;99.90
22558;DHT22;11445;53.816;8.902;2022-12-29T16:18:28;8.00;99.90
22558;DHT22;11445;53.816;8.902;2022-12-29T16:20:56;7.90;99.90
22558;DHT22;11445;53.816;8.902;2022-12-29T16:23:25;7.90;99.90
22558;DHT22;11445;53.816;8.902;2022-12-29T16:25:54;7.90;99.90